sensor_id;sensor_type;location;lat;lon;timestamp;P1;durP1;ratioP1;P2;durP2;ratioP2
7783;SDS011;19359;51.402;6.778;2023-02-11T00:01:06;29.90;;;14.45;;
7783;SDS011;19359;51.402;6.778;2023-02-11T00:03:33;28.70;;;16.05;;
7783;SDS011;19359;51.402;6.778;2023-02-11T00:06:01;27.83;;;13.85;;
7783;SDS011;19359;51.402;6.778;2023-02-11T00:08:29;27.77;;;15.82;;
7783;SDS011;19359;51.402;6.778;2023-02-11T00:10:56;29.85;;;15.73;;
7783;SDS011;19359;51.402;6.778;2023-02-11T00:13:23;35.17;;;16.48;;
7783;SDS011;19359;51.402;6.778;2023-02-11T00:15:51;26.42;;;17.58;;
7783;SDS011;19359;51.402;6.778;2023-02-11T00:18:19;28.58;;;14.68;;
7783;SDS011;19359;51.402;6.778;2023-02-11T00:20:46;27.95;;;15.10;;
7783;SDS011;19359;51.402;6.778;2023-02-11T00:23:13;30.13;;;15.40;;
7783;SDS011;19359;51.402;6.778;2023-02-11T00:25:40;28.38;;;16.13;;
7783;SDS011;19359;51.402;6.778;2023-02-11T00:28:09;26.90;;;16.25;;
7783;SDS011;19359;51.402;6.778;2023-02-11T00:30:36;31.85;;;16.02;;
7783;SDS011;19359;51.402;6.778;2023-02-11T00:33:04;30.83;;;15.05;;
7783;SDS011;19359;51.402;6.778;2023-02-11T00:35:32;28.20;;;14.73;;
7783;SDS011;19359;51.402;6.778;2023-02-11T00:37:59;35.60;;;14.05;;
7783;SDS011;19359;51.402;6.778;2023-02-11T00:40:25;33.80;;;14.98;;
7783;SDS011;19359;51.402;6.778;2023-02-11T00:42:52;27.35;;;14.88;;
7783;SDS011;19359;51.402;6.778;2023-02-11T00:45:19;24.88;;;14.25;;
7783;SDS011;19359;51.402;6.778;2023-02-11T00:47:46;25.90;;;14.85;;
7783;SDS011;19359;51.402;6.778;2023-02-11T00:50:13;25.48;;;13.90;;
7783;SDS011;19359;51.402;6.778;2023-02-11T00:52:41;28.17;;;14.27;;
7783;SDS011;19359;51.402;6.778;2023-02-11T00:55:08;27.40;;;14.57;;
7783;SDS011;19359;51.402;6.778;2023-02-11T00:57:34;29.35;;;13.27;;
7783;SDS011;19359;51.402;6.778;2023-02-11T01:00:01;24.10;;;13.52;;
7783;SDS011;19359;51.402;6.778;2023-02-11T01:02:29;22.17;;;12.65;;
7783;SDS011;19359;51.402;6.778;2023-02-11T01:04:55;28.48;;;16.23;;
7783;SDS011;19359;51.402;6.778;2023-02-11T01:07:23;23.10;;;13.65;;
7783;SDS011;19359;51.402;6.778;2023-02-11T01:09:52;22.23;;;14.45;;
7783;SDS011;19359;51.402;6.778;2023-02-11T01:12:18;23.45;;;13.98;;
7783;SDS011;19359;51.402;6.778;2023-02-11T01:14:45;26.33;;;14.07;;
7783;SDS011;19359;51.402;6.778;2023-02-11T01:17:12;23.88;;;13.10;;
7783;SDS011;19359;51.402;6.778;2023-02-11T01:19:39;29.25;;;13.88;;
7783;SDS011;19359;51.402;6.778;2023-02-11T01:22:06;27.08;;;15.05;;
7783;SDS011;19359;51.402;6.778;2023-02-11T01:24:32;25.90;;;14.00;;
7783;SDS011;19359;51.402;6.778;2023-02-11T01:27:00;26.55;;;14.93;;
7783;SDS011;19359;51.402;6.778;2023-02-11T01:29:27;26.63;;;12.02;;
7783;SDS011;19359;51.402;6.778;2023-02-11T01:31:54;25.92;;;14.27;;
7783;SDS011;19359;51.402;6.778;2023-02-11T01:34:21;31.70;;;14.63;;
7783;SDS011;19359;51.402;6.778;2023-02-11T01:36:48;28.95;;;14.38;;
7783;SDS011;19359;51.402;6.778;2023-02-11T01:39:15;25.13;;;13.02;;
7783;SDS011;19359;51.402;6.778;2023-02-11T01:41:42;22.35;;;11.90;;
7783;SDS011;19359;51.402;6.778;2023-02-11T01:44:23;29.95;;;14.15;;
7783;SDS011;19359;51.402;6.778;2023-02-11T01:46:51;22.65;;;11.48;;
7783;SDS011;19359;51.402;6.778;2023-02-11T01:49:19;21.17;;;12.07;;
7783;SDS011;19359;51.402;6.778;2023-02-11T01:51:50;19.55;;;10.20;;
7783;SDS011;19359;51.402;6.778;2023-02-11T01:54:22;28.20;;;13.70;;
7783;SDS011;19359;51.402;6.778;2023-02-11T01:57:09;16.00;;;10.60;;
7783;SDS011;19359;51.402;6.778;2023-02-11T02:00:03;26.85;;;13.18;;
7783;SDS011;19359;51.402;6.778;2023-02-11T02:02:38;24.05;;;12.90;;
7783;SDS011;19359;51.402;6.778;2023-02-11T02:05:14;24.42;;;12.70;;
7783;SDS011;19359;51.402;6.778;2023-02-11T02:07:46;21.08;;;11.43;;
7783;SDS011;19359;51.402;6.778;2023-02-11T02:10:18;31.95;;;11.35;;
7783;SDS011;19359;51.402;6.778;2023-02-11T02:12:47;25.85;;;11.68;;
7783;SDS011;19359;51.402;6.778;2023-02-11T02:15:23;21.08;;;13.35;;
7783;SDS011;19359;51.402;6.778;2023-02-11T02:17:54;23.85;;;12.13;;
7783;SDS011;19359;51.402;6.778;2023-02-11T02:20:30;27.73;;;10.20;;
7783;SDS011;19359;51.402;6.778;2023-02-11T02:32:28;30.58;;;11.55;;
7783;SDS011;19359;51.402;6.778;2023-02-11T02:35:08;32.65;;;12.90;;
7783;SDS011;19359;51.402;6.778;2023-02-11T02:37:40;19.30;;;12.10;;
7783;SDS011;19359;51.402;6.778;2023-02-11T02:40:15;42.65;;;13.60;;
7783;SDS011;19359;51.402;6.778;2023-02-11T02:42:45;21.40;;;11.52;;
7783;SDS011;19359;51.402;6.778;2023-02-11T02:45:13;30.13;;;12.38;;
7783;SDS011;19359;51.402;6.778;2023-02-11T02:47:41;17.35;;;10.07;;
7783;SDS011;19359;51.402;6.778;2023-02-11T02:50:08;20.55;;;9.95;;
7783;SDS011;19359;51.402;6.778;2023-02-11T02:52:35;12.85;;;8.15;;
7783;SDS011;19359;51.402;6.778;2023-02-11T02:55:15;19.50;;;9.13;;
7783;SDS011;19359;51.402;6.778;2023-02-11T02:57:55;20.55;;;11.32;;
7783;SDS011;19359;51.402;6.778;2023-02-11T03:00:35;24.55;;;10.68;;
7783;SDS011;19359;51.402;6.778;2023-02-11T03:03:13;22.60;;;11.65;;
7783;SDS011;19359;51.402;6.778;2023-02-11T03:05:47;19.83;;;9.15;;
7783;SDS011;19359;51.402;6.778;2023-02-11T03:08:19;27.38;;;11.75;;
7783;SDS011;19359;51.402;6.778;2023-02-11T03:10:51;20.83;;;11.65;;
7783;SDS011;19359;51.402;6.778;2023-02-11T03:13:21;28.65;;;15.20;;
7783;SDS011;19359;51.402;6.778;2023-02-11T03:15:52;33.83;;;15.07;;
7783;SDS011;19359;51.402;6.778;2023-02-11T03:18:23;24.42;;;11.38;;
7783;SDS011;19359;51.402;6.778;2023-02-11T03:20:54;23.92;;;11.38;;
7783;SDS011;19359;51.402;6.778;2023-02-11T03:23:25;17.23;;;7.18;;
7783;SDS011;19359;51.402;6.778;2023-02-11T03:25:55;20.73;;;12.20;;
7783;SDS011;19359;51.402;6.778;2023-02-11T03:28:25;19.90;;;11.18;;
7783;SDS011;19359;51.402;6.778;2023-02-11T03:30:57;16.98;;;11.32;;
7783;SDS011;19359;51.402;6.778;2023-02-11T03:33:36;17.00;;;10.35;;
7783;SDS011;19359;51.402;6.778;2023-02-11T03:36:08;18.38;;;9.57;;
7783;SDS011;19359;51.402;6.778;2023-02-11T03:38:42;19.08;;;9.90;;
7783;SDS011;19359;51.402;6.778;2023-02-11T03:41:12;26.10;;;12.25;;
7783;SDS011;19359;51.402;6.778;2023-02-11T03:43:41;20.63;;;11.68;;
7783;SDS011;19359;51.402;6.778;2023-02-11T03:46:10;21.63;;;9.80;;
7783;SDS011;19359;51.402;6.778;2023-02-11T03:48:42;28.13;;;11.93;;
7783;SDS011;19359;51.402;6.778;2023-02-11T03:51:11;23.90;;;11.40;;
7783;SDS011;19359;51.402;6.778;2023-02-11T03:53:40;25.27;;;11.65;;
7783;SDS011;19359;51.402;6.778;2023-02-11T03:56:10;26.10;;;11.98;;
7783;SDS011;19359;51.402;6.778;2023-02-11T03:58:42;28.08;;;11.52;;
7783;SDS011;19359;51.402;6.778;2023-02-11T04:01:10;28.33;;;12.68;;
7783;SDS011;19359;51.402;6.778;2023-02-11T04:03:37;22.58;;;11.77;;
7783;SDS011;19359;51.402;6.778;2023-02-11T04:06:05;31.52;;;12.10;;
7783;SDS011;19359;51.402;6.778;2023-02-11T04:08:32;28.00;;;13.38;;
7783;SDS011;19359;51.402;6.778;2023-02-11T04:10:59;27.52;;;11.23;;
7783;SDS011;19359;51.402;6.778;2023-02-11T04:13:26;21.10;;;10.00;;
7783;SDS011;19359;51.402;6.778;2023-02-11T04:15:53;23.45;;;12.45;;
7783;SDS011;19359;51.402;6.778;2023-02-11T04:18:19;18.88;;;11.40;;
7783;SDS011;19359;51.402;6.778;2023-02-11T04:20:46;26.40;;;14.07;;
7783;SDS011;19359;51.402;6.778;2023-02-11T04:23:15;14.38;;;9.68;;
7783;SDS011;19359;51.402;6.778;2023-02-11T04:25:42;26.70;;;13.35;;
7783;SDS011;19359;51.402;6.778;2023-02-11T04:28:08;36.80;;;10.75;;
7783;SDS011;19359;51.402;6.778;2023-02-11T04:30:35;19.10;;;9.82;;
7783;SDS011;19359;51.402;6.778;2023-02-11T04:33:02;22.92;;;12.75;;
7783;SDS011;19359;51.402;6.778;2023-02-11T04:35:29;19.85;;;11.60;;
7783;SDS011;19359;51.402;6.778;2023-02-11T04:37:55;23.27;;;13.40;;
7783;SDS011;19359;51.402;6.778;2023-02-11T04:40:23;21.15;;;10.68;;
7783;SDS011;19359;51.402;6.778;2023-02-11T04:42:50;31.30;;;14.32;;
7783;SDS011;19359;51.402;6.778;2023-02-11T04:45:17;17.45;;;11.85;;
7783;SDS011;19359;51.402;6.778;2023-02-11T04:47:44;22.38;;;12.43;;
7783;SDS011;19359;51.402;6.778;2023-02-11T04:50:11;22.88;;;13.50;;
7783;SDS011;19359;51.402;6.778;2023-02-11T04:52:38;28.58;;;13.05;;
7783;SDS011;19359;51.402;6.778;2023-02-11T04:55:05;21.75;;;12.88;;
7783;SDS011;19359;51.402;6.778;2023-02-11T04:57:33;22.83;;;10.57;;
7783;SDS011;19359;51.402;6.778;2023-02-11T05:00:00;23.60;;;12.30;;
7783;SDS011;19359;51.402;6.778;2023-02-11T05:02:27;17.90;;;10.63;;
7783;SDS011;19359;51.402;6.778;2023-02-11T05:04:54;39.60;;;14.80;;
7783;SDS011;19359;51.402;6.778;2023-02-11T05:07:21;35.85;;;15.20;;
7783;SDS011;19359;51.402;6.778;2023-02-11T05:09:48;38.50;;;15.05;;
7783;SDS011;19359;51.402;6.778;2023-02-11T05:12:14;26.73;;;13.60;;
7783;SDS011;19359;51.402;6.778;2023-02-11T05:14:42;28.00;;;14.25;;
7783;SDS011;19359;51.402;6.778;2023-02-11T05:17:09;25.60;;;15.02;;
7783;SDS011;19359;51.402;6.778;2023-02-11T05:19:36;35.33;;;16.75;;
7783;SDS011;19359;51.402;6.778;2023-02-11T05:22:03;35.47;;;17.63;;
7783;SDS011;19359;51.402;6.778;2023-02-11T05:24:30;35.60;;;16.17;;
7783;SDS011;19359;51.402;6.778;2023-02-11T05:26:57;28.40;;;15.02;;
7783;SDS011;19359;51.402;6.778;2023-02-11T05:29:23;31.23;;;16.23;;
7783;SDS011;19359;51.402;6.778;2023-02-11T05:31:52;33.35;;;15.10;;
7783;SDS011;19359;51.402;6.778;2023-02-11T05:34:18;39.00;;;14.20;;
7783;SDS011;19359;51.402;6.778;2023-02-11T05:36:45;39.35;;;17.52;;
7783;SDS011;19359;51.402;6.778;2023-02-11T05:39:12;33.90;;;17.20;;
7783;SDS011;19359;51.402;6.778;2023-02-11T05:41:39;38.67;;;17.20;;
7783;SDS011;19359;51.402;6.778;2023-02-11T05:44:05;26.65;;;13.85;;
7783;SDS011;19359;51.402;6.778;2023-02-11T05:46:32;36.42;;;16.02;;
7783;SDS011;19359;51.402;6.778;2023-02-11T05:49:01;36.58;;;16.80;;
7783;SDS011;19359;51.402;6.778;2023-02-11T05:51:27;31.63;;;15.23;;
7783;SDS011;19359;51.402;6.778;2023-02-11T05:53:54;33.05;;;15.90;;
7783;SDS011;19359;51.402;6.778;2023-02-11T05:56:21;32.20;;;15.93;;
7783;SDS011;19359;51.402;6.778;2023-02-11T05:58:48;36.28;;;17.02;;
7783;SDS011;19359;51.402;6.778;2023-02-11T06:01:14;39.90;;;17.65;;
7783;SDS011;19359;51.402;6.778;2023-02-11T06:03:41;28.80;;;16.50;;
7783;SDS011;19359;51.402;6.778;2023-02-11T06:06:10;43.50;;;16.08;;
7783;SDS011;19359;51.402;6.778;2023-02-11T06:08:37;37.63;;;15.43;;
7783;SDS011;19359;51.402;6.778;2023-02-11T06:11:04;30.83;;;15.77;;
7783;SDS011;19359;51.402;6.778;2023-02-11T06:13:30;42.13;;;16.80;;
7783;SDS011;19359;51.402;6.778;2023-02-11T06:15:58;31.90;;;15.02;;
7783;SDS011;19359;51.402;6.778;2023-02-11T06:18:25;32.30;;;15.57;;
7783;SDS011;19359;51.402;6.778;2023-02-11T06:20:53;32.47;;;14.85;;
7783;SDS011;19359;51.402;6.778;2023-02-11T06:23:22;30.70;;;12.35;;
7783;SDS011;19359;51.402;6.778;2023-02-11T06:25:48;32.35;;;15.38;;
7783;SDS011;19359;51.402;6.778;2023-02-11T06:28:15;36.33;;;14.30;;
7783;SDS011;19359;51.402;6.778;2023-02-11T06:30:42;31.20;;;12.88;;
7783;SDS011;19359;51.402;6.778;2023-02-11T06:33:09;65.50;;;15.13;;
7783;SDS011;19359;51.402;6.778;2023-02-11T06:35:37;42.35;;;16.77;;
7783;SDS011;19359;51.402;6.778;2023-02-11T06:38:04;43.35;;;15.98;;
7783;SDS011;19359;51.402;6.778;2023-02-11T06:40:32;28.23;;;13.75;;
7783;SDS011;19359;51.402;6.778;2023-02-11T06:42:59;36.60;;;17.70;;
7783;SDS011;19359;51.402;6.778;2023-02-11T06:45:26;39.67;;;15.27;;
7783;SDS011;19359;51.402;6.778;2023-02-11T06:47:53;43.35;;;18.60;;
7783;SDS011;19359;51.402;6.778;2023-02-11T06:50:19;30.20;;;13.98;;
7783;SDS011;19359;51.402;6.778;2023-02-11T06:52:46;38.90;;;18.15;;
7783;SDS011;19359;51.402;6.778;2023-02-11T06:55:13;31.40;;;13.90;;
7783;SDS011;19359;51.402;6.778;2023-02-11T06:57:41;38.00;;;16.73;;
7783;SDS011;19359;51.402;6.778;2023-02-11T07:00:08;40.70;;;16.35;;
7783;SDS011;19359;51.402;6.778;2023-02-11T07:02:35;39.63;;;15.60;;
7783;SDS011;19359;51.402;6.778;2023-02-11T07:05:03;28.30;;;14.77;;
7783;SDS011;19359;51.402;6.778;2023-02-11T07:07:30;39.47;;;13.27;;
7783;SDS011;19359;51.402;6.778;2023-02-11T07:09:57;36.78;;;14.68;;
7783;SDS011;19359;51.402;6.778;2023-02-11T07:12:24;43.80;;;16.25;;
7783;SDS011;19359;51.402;6.778;2023-02-11T07:14:52;34.25;;;16.17;;
7783;SDS011;19359;51.402;6.778;2023-02-11T07:17:20;45.78;;;17.08;;
7783;SDS011;19359;51.402;6.778;2023-02-11T07:19:47;39.20;;;16.08;;
7783;SDS011;19359;51.402;6.778;2023-02-11T07:22:14;48.80;;;16.75;;
7783;SDS011;19359;51.402;6.778;2023-02-11T07:24:41;40.83;;;15.88;;
7783;SDS011;19359;51.402;6.778;2023-02-11T07:27:08;39.67;;;15.57;;
7783;SDS011;19359;51.402;6.778;2023-02-11T07:29:34;40.53;;;17.70;;
7783;SDS011;19359;51.402;6.778;2023-02-11T07:32:02;62.08;;;18.13;;
7783;SDS011;19359;51.402;6.778;2023-02-11T07:34:30;63.05;;;19.55;;
7783;SDS011;19359;51.402;6.778;2023-02-11T07:36:57;62.22;;;17.52;;
7783;SDS011;19359;51.402;6.778;2023-02-11T07:39:24;37.40;;;16.70;;
7783;SDS011;19359;51.402;6.778;2023-02-11T07:41:51;48.58;;;16.55;;
7783;SDS011;19359;51.402;6.778;2023-02-11T07:44:18;53.50;;;16.55;;
7783;SDS011;19359;51.402;6.778;2023-02-11T07:46:45;38.30;;;16.15;;
7783;SDS011;19359;51.402;6.778;2023-02-11T07:49:14;37.05;;;16.85;;
7783;SDS011;19359;51.402;6.778;2023-02-11T07:51:41;46.47;;;16.23;;
7783;SDS011;19359;51.402;6.778;2023-02-11T07:54:10;37.72;;;18.33;;
7783;SDS011;19359;51.402;6.778;2023-02-11T07:56:37;45.95;;;16.55;;
7783;SDS011;19359;51.402;6.778;2023-02-11T07:59:04;42.92;;;15.25;;
7783;SDS011;19359;51.402;6.778;2023-02-11T08:01:31;44.55;;;16.30;;
7783;SDS011;19359;51.402;6.778;2023-02-11T08:03:59;47.35;;;17.17;;
7783;SDS011;19359;51.402;6.778;2023-02-11T08:06:28;54.17;;;17.58;;
7783;SDS011;19359;51.402;6.778;2023-02-11T08:08:56;48.95;;;17.55;;
7783;SDS011;19359;51.402;6.778;2023-02-11T08:11:23;36.63;;;14.25;;
7783;SDS011;19359;51.402;6.778;2023-02-11T08:13:52;36.08;;;15.75;;
7783;SDS011;19359;51.402;6.778;2023-02-11T08:16:20;42.08;;;15.25;;
7783;SDS011;19359;51.402;6.778;2023-02-11T08:18:49;47.45;;;18.15;;
7783;SDS011;19359;51.402;6.778;2023-02-11T08:21:16;35.67;;;16.63;;
7783;SDS011;19359;51.402;6.778;2023-02-11T08:23:45;47.92;;;18.95;;
7783;SDS011;19359;51.402;6.778;2023-02-11T08:26:14;41.75;;;18.70;;
7783;SDS011;19359;51.402;6.778;2023-02-11T08:28:42;40.60;;;17.13;;
7783;SDS011;19359;51.402;6.778;2023-02-11T08:31:12;53.67;;;19.02;;
7783;SDS011;19359;51.402;6.778;2023-02-11T08:33:39;40.03;;;16.42;;
7783;SDS011;19359;51.402;6.778;2023-02-11T08:36:07;44.35;;;17.67;;
7783;SDS011;19359;51.402;6.778;2023-02-11T08:38:34;44.70;;;18.77;;
7783;SDS011;19359;51.402;6.778;2023-02-11T08:41:02;43.58;;;19.83;;
7783;SDS011;19359;51.402;6.778;2023-02-11T08:43:29;48.00;;;20.05;;
7783;SDS011;19359;51.402;6.778;2023-02-11T08:45:56;55.55;;;20.73;;
7783;SDS011;19359;51.402;6.778;2023-02-11T08:48:24;47.38;;;19.55;;
7783;SDS011;19359;51.402;6.778;2023-02-11T08:50:52;36.45;;;16.20;;
7783;SDS011;19359;51.402;6.778;2023-02-11T08:53:19;47.25;;;20.92;;
7783;SDS011;19359;51.402;6.778;2023-02-11T08:55:49;71.03;;;23.00;;
7783;SDS011;19359;51.402;6.778;2023-02-11T08:58:17;39.63;;;17.35;;
7783;SDS011;19359;51.402;6.778;2023-02-11T09:00:44;48.50;;;23.00;;
7783;SDS011;19359;51.402;6.778;2023-02-11T09:03:11;60.22;;;20.85;;
7783;SDS011;19359;51.402;6.778;2023-02-11T09:05:39;42.65;;;18.83;;
7783;SDS011;19359;51.402;6.778;2023-02-11T09:08:07;48.90;;;17.77;;
7783;SDS011;19359;51.402;6.778;2023-02-11T09:10:33;49.65;;;21.48;;
7783;SDS011;19359;51.402;6.778;2023-02-11T09:13:00;55.10;;;21.75;;
7783;SDS011;19359;51.402;6.778;2023-02-11T09:15:28;64.00;;;21.67;;
7783;SDS011;19359;51.402;6.778;2023-02-11T09:17:55;54.63;;;27.45;;
7783;SDS011;19359;51.402;6.778;2023-02-11T09:20:22;44.78;;;18.13;;
7783;SDS011;19359;51.402;6.778;2023-02-11T09:22:50;52.05;;;19.17;;
7783;SDS011;19359;51.402;6.778;2023-02-11T09:25:17;50.58;;;21.33;;
7783;SDS011;19359;51.402;6.778;2023-02-11T09:27:44;55.42;;;20.52;;
7783;SDS011;19359;51.402;6.778;2023-02-11T09:30:11;45.40;;;18.23;;
7783;SDS011;19359;51.402;6.778;2023-02-11T09:32:39;54.28;;;19.98;;
7783;SDS011;19359;51.402;6.778;2023-02-11T09:35:06;41.28;;;20.92;;
7783;SDS011;19359;51.402;6.778;2023-02-11T09:37:33;48.40;;;20.15;;
7783;SDS011;19359;51.402;6.778;2023-02-11T09:40:00;46.33;;;20.88;;
7783;SDS011;19359;51.402;6.778;2023-02-11T09:42:34;44.25;;;18.13;;
7783;SDS011;19359;51.402;6.778;2023-02-11T09:45:12;53.03;;;18.80;;
7783;SDS011;19359;51.402;6.778;2023-02-11T09:47:46;49.20;;;21.48;;
7783;SDS011;19359;51.402;6.778;2023-02-11T09:50:21;44.63;;;20.00;;
7783;SDS011;19359;51.402;6.778;2023-02-11T09:52:52;43.30;;;21.55;;
7783;SDS011;19359;51.402;6.778;2023-02-11T09:55:23;53.80;;;22.58;;
7783;SDS011;19359;51.402;6.778;2023-02-11T09:57:53;50.80;;;19.70;;
7783;SDS011;19359;51.402;6.778;2023-02-11T10:00:22;50.63;;;20.60;;
7783;SDS011;19359;51.402;6.778;2023-02-11T10:02:59;50.95;;;20.65;;
7783;SDS011;19359;51.402;6.778;2023-02-11T10:05:43;49.90;;;19.95;;
7783;SDS011;19359;51.402;6.778;2023-02-11T10:08:18;53.70;;;24.88;;
7783;SDS011;19359;51.402;6.778;2023-02-11T10:10:51;42.30;;;19.75;;
7783;SDS011;19359;51.402;6.778;2023-02-11T10:13:27;49.03;;;19.90;;
7783;SDS011;19359;51.402;6.778;2023-02-11T10:16:16;63.28;;;26.42;;
7783;SDS011;19359;51.402;6.778;2023-02-11T10:18:57;229.80;;;105.10;;
7783;SDS011;19359;51.402;6.778;2023-02-11T10:21:36;239.77;;;87.03;;
7783;SDS011;19359;51.402;6.778;2023-02-11T10:24:11;56.20;;;23.30;;
7783;SDS011;19359;51.402;6.778;2023-02-11T10:26:40;40.97;;;21.27;;
7783;SDS011;19359;51.402;6.778;2023-02-11T10:29:11;49.00;;;20.83;;
7783;SDS011;19359;51.402;6.778;2023-02-11T10:31:46;47.72;;;20.83;;
7783;SDS011;19359;51.402;6.778;2023-02-11T10:34:15;62.47;;;27.48;;
7783;SDS011;19359;51.402;6.778;2023-02-11T10:36:42;48.45;;;19.20;;
7783;SDS011;19359;51.402;6.778;2023-02-11T10:39:10;40.08;;;20.58;;
7783;SDS011;19359;51.402;6.778;2023-02-11T10:41:41;33.25;;;17.83;;
7783;SDS011;19359;51.402;6.778;2023-02-11T10:44:13;54.50;;;20.70;;
7783;SDS011;19359;51.402;6.778;2023-02-11T10:46:48;44.97;;;17.98;;
7783;SDS011;19359;51.402;6.778;2023-02-11T10:49:31;49.80;;;21.67;;
7783;SDS011;19359;51.402;6.778;2023-02-11T10:52:11;45.15;;;19.98;;
7783;SDS011;19359;51.402;6.778;2023-02-11T10:54:39;49.67;;;21.83;;
7783;SDS011;19359;51.402;6.778;2023-02-11T10:57:11;55.85;;;23.90;;
7783;SDS011;19359;51.402;6.778;2023-02-11T10:59:44;41.47;;;19.25;;
7783;SDS011;19359;51.402;6.778;2023-02-11T11:02:18;49.03;;;21.85;;
7783;SDS011;19359;51.402;6.778;2023-02-11T11:04:50;56.67;;;24.33;;
7783;SDS011;19359;51.402;6.778;2023-02-11T11:07:22;54.15;;;23.90;;
7783;SDS011;19359;51.402;6.778;2023-02-11T11:09:53;40.83;;;17.63;;
7783;SDS011;19359;51.402;6.778;2023-02-11T11:12:27;61.33;;;21.42;;
7783;SDS011;19359;51.402;6.778;2023-02-11T11:14:57;50.25;;;23.08;;
7783;SDS011;19359;51.402;6.778;2023-02-11T11:17:25;45.47;;;20.25;;
7783;SDS011;19359;51.402;6.778;2023-02-11T11:19:55;61.70;;;23.00;;
7783;SDS011;19359;51.402;6.778;2023-02-11T11:22:40;65.38;;;25.70;;
7783;SDS011;19359;51.402;6.778;2023-02-11T11:25:19;57.40;;;23.77;;
7783;SDS011;19359;51.402;6.778;2023-02-11T11:27:47;61.60;;;24.70;;
7783;SDS011;19359;51.402;6.778;2023-02-11T11:30:14;54.53;;;23.10;;
7783;SDS011;19359;51.402;6.778;2023-02-11T11:32:42;56.75;;;24.13;;
7783;SDS011;19359;51.402;6.778;2023-02-11T11:35:20;41.42;;;18.55;;
7783;SDS011;19359;51.402;6.778;2023-02-11T11:37:51;53.30;;;20.00;;
7783;SDS011;19359;51.402;6.778;2023-02-11T11:40:21;60.42;;;22.67;;
7783;SDS011;19359;51.402;6.778;2023-02-11T11:43:04;54.38;;;21.23;;
7783;SDS011;19359;51.402;6.778;2023-02-11T11:45:42;53.03;;;22.23;;
7783;SDS011;19359;51.402;6.778;2023-02-11T11:48:20;49.67;;;21.60;;
7783;SDS011;19359;51.402;6.778;2023-02-11T11:50:52;57.30;;;21.15;;
7783;SDS011;19359;51.402;6.778;2023-02-11T11:53:23;58.90;;;20.35;;
7783;SDS011;19359;51.402;6.778;2023-02-11T11:55:56;60.33;;;21.35;;
7783;SDS011;19359;51.402;6.778;2023-02-11T11:58:28;49.50;;;22.00;;
7783;SDS011;19359;51.402;6.778;2023-02-11T12:00:57;49.45;;;22.02;;
7783;SDS011;19359;51.402;6.778;2023-02-11T12:03:49;45.72;;;20.42;;
7783;SDS011;19359;51.402;6.778;2023-02-11T12:06:34;40.20;;;19.13;;
7783;SDS011;19359;51.402;6.778;2023-02-11T12:09:11;53.38;;;22.48;;
7783;SDS011;19359;51.402;6.778;2023-02-11T12:11:48;53.80;;;23.30;;
7783;SDS011;19359;51.402;6.778;2023-02-11T12:14:23;53.22;;;22.92;;
7783;SDS011;19359;51.402;6.778;2023-02-11T12:17:00;64.32;;;23.40;;
7783;SDS011;19359;51.402;6.778;2023-02-11T12:22:38;56.10;;;22.15;;
7783;SDS011;19359;51.402;6.778;2023-02-11T12:28:04;65.90;;;23.90;;
7783;SDS011;19359;51.402;6.778;2023-02-11T12:30:48;57.40;;;24.08;;
7783;SDS011;19359;51.402;6.778;2023-02-11T12:33:27;59.85;;;23.15;;
7783;SDS011;19359;51.402;6.778;2023-02-11T12:36:28;62.70;;;25.42;;
7783;SDS011;19359;51.402;6.778;2023-02-11T12:39:09;50.17;;;24.02;;
7783;SDS011;19359;51.402;6.778;2023-02-11T12:41:50;52.80;;;23.38;;
7783;SDS011;19359;51.402;6.778;2023-02-11T12:47:56;58.53;;;22.90;;
7783;SDS011;19359;51.402;6.778;2023-02-11T12:50:34;50.67;;;22.88;;
7783;SDS011;19359;51.402;6.778;2023-02-11T12:53:13;42.83;;;19.05;;
7783;SDS011;19359;51.402;6.778;2023-02-11T12:56:04;50.55;;;22.38;;
7783;SDS011;19359;51.402;6.778;2023-02-11T12:58:37;56.63;;;23.40;;
7783;SDS011;19359;51.402;6.778;2023-02-11T13:01:07;50.50;;;20.55;;
7783;SDS011;19359;51.402;6.778;2023-02-11T13:03:38;47.95;;;21.77;;
7783;SDS011;19359;51.402;6.778;2023-02-11T13:06:09;52.35;;;23.88;;
7783;SDS011;19359;51.402;6.778;2023-02-11T13:08:40;45.80;;;19.80;;
7783;SDS011;19359;51.402;6.778;2023-02-11T13:11:12;48.97;;;22.50;;
7783;SDS011;19359;51.402;6.778;2023-02-11T13:13:45;53.25;;;23.25;;
7783;SDS011;19359;51.402;6.778;2023-02-11T13:16:18;55.13;;;21.80;;
7783;SDS011;19359;51.402;6.778;2023-02-11T13:18:50;56.38;;;23.42;;
7783;SDS011;19359;51.402;6.778;2023-02-11T13:21:32;52.97;;;22.50;;
7783;SDS011;19359;51.402;6.778;2023-02-11T13:24:12;44.78;;;22.92;;
7783;SDS011;19359;51.402;6.778;2023-02-11T13:26:46;51.65;;;24.00;;
7783;SDS011;19359;51.402;6.778;2023-02-11T13:29:25;54.60;;;21.75;;
7783;SDS011;19359;51.402;6.778;2023-02-11T13:32:04;50.92;;;23.10;;
7783;SDS011;19359;51.402;6.778;2023-02-11T13:34:55;65.20;;;24.15;;
7783;SDS011;19359;51.402;6.778;2023-02-11T13:37:24;45.28;;;19.38;;
7783;SDS011;19359;51.402;6.778;2023-02-11T13:39:56;70.90;;;24.10;;
7783;SDS011;19359;51.402;6.778;2023-02-11T13:42:26;54.20;;;23.88;;
7783;SDS011;19359;51.402;6.778;2023-02-11T13:44:54;53.63;;;24.15;;
7783;SDS011;19359;51.402;6.778;2023-02-11T13:47:24;47.35;;;24.80;;
7783;SDS011;19359;51.402;6.778;2023-02-11T13:49:52;47.60;;;22.65;;
7783;SDS011;19359;51.402;6.778;2023-02-11T13:52:21;51.35;;;22.45;;
7783;SDS011;19359;51.402;6.778;2023-02-11T13:54:51;55.33;;;23.05;;
7783;SDS011;19359;51.402;6.778;2023-02-11T13:57:21;58.83;;;26.25;;
7783;SDS011;19359;51.402;6.778;2023-02-11T13:59:56;54.08;;;22.98;;
7783;SDS011;19359;51.402;6.778;2023-02-11T14:02:25;47.47;;;23.88;;
7783;SDS011;19359;51.402;6.778;2023-02-11T14:05:18;56.72;;;23.23;;
7783;SDS011;19359;51.402;6.778;2023-02-11T14:14:14;55.83;;;24.42;;
7783;SDS011;19359;51.402;6.778;2023-02-11T14:19:37;53.10;;;23.05;;
7783;SDS011;19359;51.402;6.778;2023-02-11T14:22:11;51.08;;;25.25;;
7783;SDS011;19359;51.402;6.778;2023-02-11T14:24:48;46.75;;;24.80;;
7783;SDS011;19359;51.402;6.778;2023-02-11T14:27:19;52.70;;;23.35;;
7783;SDS011;19359;51.402;6.778;2023-02-11T14:30:08;49.70;;;22.33;;
7783;SDS011;19359;51.402;6.778;2023-02-11T14:32:46;55.38;;;23.58;;
7783;SDS011;19359;51.402;6.778;2023-02-11T14:35:29;51.58;;;22.30;;
7783;SDS011;19359;51.402;6.778;2023-02-11T14:38:04;46.85;;;20.33;;
7783;SDS011;19359;51.402;6.778;2023-02-11T14:40:39;49.30;;;25.13;;
7783;SDS011;19359;51.402;6.778;2023-02-11T14:43:11;54.58;;;23.58;;
7783;SDS011;19359;51.402;6.778;2023-02-11T14:45:40;53.70;;;25.77;;
7783;SDS011;19359;51.402;6.778;2023-02-11T14:48:13;52.42;;;24.30;;
7783;SDS011;19359;51.402;6.778;2023-02-11T14:50:43;56.95;;;23.33;;
7783;SDS011;19359;51.402;6.778;2023-02-11T14:53:13;50.25;;;23.23;;
7783;SDS011;19359;51.402;6.778;2023-02-11T14:55:43;41.22;;;23.00;;
7783;SDS011;19359;51.402;6.778;2023-02-11T14:58:13;55.53;;;24.67;;
7783;SDS011;19359;51.402;6.778;2023-02-11T15:00:50;47.05;;;23.92;;
7783;SDS011;19359;51.402;6.778;2023-02-11T15:03:25;47.15;;;23.55;;
7783;SDS011;19359;51.402;6.778;2023-02-11T15:05:53;58.15;;;23.98;;
7783;SDS011;19359;51.402;6.778;2023-02-11T15:08:22;63.92;;;23.50;;
7783;SDS011;19359;51.402;6.778;2023-02-11T15:10:49;59.55;;;23.55;;
7783;SDS011;19359;51.402;6.778;2023-02-11T15:13:17;58.03;;;23.92;;
7783;SDS011;19359;51.402;6.778;2023-02-11T15:15:46;51.88;;;25.63;;
7783;SDS011;19359;51.402;6.778;2023-02-11T15:18:20;58.50;;;25.65;;
7783;SDS011;19359;51.402;6.778;2023-02-11T15:20:49;54.40;;;25.52;;
7783;SDS011;19359;51.402;6.778;2023-02-11T15:23:18;56.50;;;24.65;;